Terminal Aerodrome Forecast
Issued by NWS

Home | Current Version | Previous Version | Text Only | Print | Product List | Glossary On
Versions: 1 2 3 4 5 6 7 8 9 10 11 12 13 14 15 16 17
000
FTUS44 KLZK 191100 RRA
TAFLLQ
TAF
KLLQ 191140Z 1912/2012 VRB03KT 1/2SM FG VV002
      TEMPO 1912/1915 2SM BR OVC005
     FM191500 05004KT P6SM OVC015
     FM191630 08004KT P6SM BKN025
     FM191800 10005KT P6SM BKN040
     FM200000 VRB03KT P6SM SCT250=

USA.gov is the U.S. government's official web portal to all federal, state and local government web resources and services.